createdAt,value
2022-08-26T00:00:55.669Z,22.49
2022-08-26T00:05:55.606Z,22.37
2022-08-26T00:10:55.547Z,22.38
2022-08-26T00:15:55.464Z,22.42
2022-08-26T00:20:55.416Z,22.24
2022-08-26T00:25:55.332Z,22.07
2022-08-26T00:30:55.285Z,21.98
2022-08-26T00:35:55.212Z,21.95
2022-08-26T00:40:55.152Z,21.90
2022-08-26T00:45:55.183Z,21.76
2022-08-26T00:50:55.023Z,21.73
2022-08-26T00:55:54.950Z,21.72
2022-08-26T01:00:54.948Z,21.61
2022-08-26T01:05:54.809Z,21.50
2022-08-26T01:10:54.991Z,21.40
2022-08-26T01:15:54.679Z,21.37
2022-08-26T01:20:57.658Z,21.35
2022-08-26T01:25:54.559Z,21.30
2022-08-26T01:30:54.494Z,21.21
2022-08-26T01:35:54.420Z,21.14
2022-08-26T01:40:54.591Z,21.11
2022-08-26T01:45:54.360Z,21.05
2022-08-26T01:50:54.235Z,21.08
2022-08-26T01:55:54.171Z,21.06
2022-08-26T02:00:54.166Z,21.05
2022-08-26T02:05:54.032Z,21.01
2022-08-26T02:10:54.802Z,20.99
2022-08-26T02:15:54.044Z,21.02
2022-08-26T02:20:53.854Z,21.01
2022-08-26T02:25:53.787Z,20.92
2022-08-26T02:30:55.509Z,20.84
2022-08-26T02:35:53.657Z,20.83
2022-08-26T02:40:53.589Z,20.68
2022-08-26T02:45:53.526Z,20.55
2022-08-26T02:50:53.468Z,20.47
2022-08-26T02:55:53.394Z,20.44
2022-08-26T03:00:53.795Z,20.41
2022-08-26T03:05:53.272Z,20.41
2022-08-26T03:10:53.205Z,20.41
2022-08-26T03:15:53.206Z,20.39
2022-08-26T03:20:53.081Z,20.39
2022-08-26T03:25:53.010Z,20.39
2022-08-26T03:30:52.942Z,20.25
2022-08-26T03:35:52.868Z,20.16
2022-08-26T03:40:52.819Z,20.16
2022-08-26T03:45:52.736Z,20.18
2022-08-26T03:50:52.677Z,20.19
2022-08-26T03:55:52.614Z,20.07
2022-08-26T04:00:55.567Z,20.00
2022-08-26T04:05:52.469Z,19.96
2022-08-26T04:10:52.395Z,19.94
2022-08-26T04:15:52.698Z,19.95
2022-08-26T04:20:52.266Z,19.99
2022-08-26T04:25:52.219Z,19.96
2022-08-26T04:30:52.176Z,19.94
2022-08-26T04:35:52.074Z,19.92
2022-08-26T04:40:51.996Z,19.92
2022-08-26T04:45:51.951Z,19.86
2022-08-26T04:50:51.875Z,19.88
2022-08-26T04:55:52.474Z,20.02
2022-08-26T05:00:51.743Z,20.16
2022-08-26T05:05:51.668Z,20.21
2022-08-26T05:10:51.596Z,20.24
2022-08-26T05:15:51.639Z,20.31
2022-08-26T05:20:51.460Z,20.41
2022-08-26T05:25:54.703Z,20.57
2022-08-26T05:30:51.379Z,20.64
2022-08-26T05:35:51.273Z,20.65
2022-08-26T05:40:52.781Z,20.61
2022-08-26T05:45:51.141Z,20.64
2022-08-26T05:50:51.076Z,20.76
2022-08-26T05:55:51.000Z,20.81
2022-08-26T06:00:50.941Z,20.96
2022-08-26T06:05:50.871Z,21.22
2022-08-26T06:10:50.985Z,21.52
2022-08-26T06:15:50.795Z,21.90
2022-08-26T06:20:57.271Z,22.37
2022-08-26T06:25:50.616Z,22.84
2022-08-26T06:30:50.579Z,23.20
2022-08-26T06:35:50.490Z,23.57
2022-08-26T06:40:50.435Z,24.90
2022-08-26T06:45:50.360Z,25.99
2022-08-26T06:50:50.294Z,26.02
2022-08-26T06:55:51.813Z,26.15
2022-08-26T07:00:50.172Z,27.17
2022-08-26T07:05:50.092Z,28.13
2022-08-26T07:10:50.033Z,28.76
2022-08-26T07:15:49.998Z,28.88
2022-08-26T07:20:49.903Z,29.01
2022-08-26T07:25:49.863Z,29.71
2022-08-26T07:30:49.813Z,30.62
2022-08-26T07:35:49.710Z,30.99
2022-08-26T07:40:49.645Z,31.58
2022-08-26T07:45:49.614Z,32.55
2022-08-26T07:50:50.583Z,33.22
2022-08-26T07:55:49.459Z,33.19
2022-08-26T08:00:49.390Z,33.61
2022-08-26T08:05:49.321Z,34.05
2022-08-26T08:10:49.289Z,33.64
2022-08-26T08:15:50.296Z,32.44
2022-08-26T08:20:59.468Z,30.79
2022-08-26T08:25:50.115Z,30.77
2022-08-26T08:30:49.094Z,31.21
2022-08-26T08:35:48.948Z,30.93
2022-08-26T08:40:48.889Z,30.90
2022-08-26T08:45:49.661Z,31.15
2022-08-26T08:50:48.771Z,30.99
2022-08-26T08:55:48.688Z,30.98
2022-08-26T09:00:48.650Z,30.82
2022-08-26T09:05:48.990Z,30.50
2022-08-26T09:10:48.493Z,30.67
2022-08-26T09:15:48.424Z,30.69
2022-08-26T09:20:48.389Z,30.35
2022-08-26T09:25:48.349Z,29.78
2022-08-26T09:30:48.306Z,29.76
2022-08-26T09:35:48.718Z,30.31
2022-08-26T09:40:48.141Z,30.49
2022-08-26T09:45:50.275Z,30.71
2022-08-26T09:50:48.015Z,30.77
2022-08-26T09:55:47.943Z,30.91
2022-08-26T10:00:47.910Z,31.21
2022-08-26T10:05:47.812Z,31.39
2022-08-26T10:10:47.762Z,31.29
2022-08-26T10:15:50.669Z,31.51
2022-08-26T10:20:47.642Z,31.54
2022-08-26T10:25:47.579Z,31.71
2022-08-26T10:30:47.514Z,31.78
2022-08-26T10:35:47.446Z,31.73
2022-08-26T10:40:49.123Z,31.64
2022-08-26T10:45:47.350Z,31.54
2022-08-26T10:50:47.455Z,31.43
2022-08-26T10:55:47.184Z,30.87
2022-08-26T11:00:47.195Z,30.34
2022-08-26T11:05:47.056Z,30.12
2022-08-26T11:10:47.006Z,30.19
2022-08-26T11:15:46.918Z,30.60
2022-08-26T11:20:47.234Z,31.18
2022-08-26T11:25:46.781Z,31.52
2022-08-26T11:30:46.731Z,31.78
2022-08-26T11:35:46.657Z,31.84
2022-08-26T11:40:46.613Z,31.88
2022-08-26T11:45:46.567Z,31.98
2022-08-26T11:50:46.474Z,32.15
2022-08-26T11:55:47.335Z,31.91
2022-08-26T12:00:46.325Z,32.14
2022-08-26T12:05:46.248Z,32.33
2022-08-26T12:10:46.189Z,32.64
2022-08-26T12:15:46.116Z,32.73
2022-08-26T12:20:46.206Z,32.82
2022-08-26T12:25:46.013Z,32.93
2022-08-26T12:30:45.952Z,32.97
2022-08-26T12:35:45.865Z,32.87
2022-08-26T12:40:45.816Z,32.47
2022-08-26T12:45:45.804Z,31.84
2022-08-26T12:50:46.053Z,31.36
2022-08-26T12:55:45.615Z,31.51
2022-08-26T13:00:45.801Z,31.54
2022-08-26T13:05:45.488Z,31.33
2022-08-26T13:10:45.446Z,31.28
2022-08-26T13:15:45.368Z,31.31
2022-08-26T13:20:45.327Z,31.09
2022-08-26T13:25:45.240Z,29.37
2022-08-26T13:30:45.199Z,28.26
2022-08-26T13:35:45.114Z,27.88
2022-08-26T13:40:45.054Z,27.44
2022-08-26T13:45:44.991Z,27.26
2022-08-26T13:50:45.054Z,27.32
2022-08-26T13:55:44.857Z,26.79
2022-08-26T14:00:44.890Z,26.33
2022-08-26T14:05:44.743Z,26.25
2022-08-26T14:10:44.726Z,26.32
2022-08-26T14:15:44.857Z,26.28
2022-08-26T14:20:44.545Z,26.36
2022-08-26T14:25:44.477Z,26.33
2022-08-26T14:30:44.428Z,26.13
2022-08-26T14:35:48.790Z,25.99
2022-08-26T14:40:44.286Z,25.83
2022-08-26T14:45:44.257Z,25.84
2022-08-26T14:50:44.157Z,25.93
2022-08-26T14:55:44.094Z,25.83
2022-08-26T15:00:44.030Z,25.78
2022-08-26T15:05:47.388Z,25.65
2022-08-26T15:10:43.901Z,25.48
2022-08-26T15:15:43.846Z,25.53
2022-08-26T15:20:43.794Z,25.22
2022-08-26T15:25:43.717Z,25.05
2022-08-26T15:30:43.651Z,25.06
2022-08-26T15:35:43.583Z,24.80
2022-08-26T15:40:43.537Z,24.69
2022-08-26T15:45:43.445Z,24.76
2022-08-26T15:50:43.399Z,24.83
2022-08-26T15:55:43.317Z,24.92
2022-08-26T16:00:43.259Z,25.05
2022-08-26T16:05:43.294Z,25.16
2022-08-26T16:10:46.586Z,25.17
2022-08-26T16:15:43.107Z,25.25
2022-08-26T16:20:43.009Z,25.32
2022-08-26T16:25:44.944Z,25.39
2022-08-26T16:30:42.870Z,25.40
2022-08-26T16:35:42.818Z,25.37
2022-08-26T16:40:42.739Z,25.35
2022-08-26T16:45:42.678Z,25.30
2022-08-26T16:50:42.618Z,25.25
2022-08-26T16:55:42.544Z,25.21
2022-08-26T17:00:42.483Z,25.13
2022-08-26T17:05:42.404Z,25.09
2022-08-26T17:15:42.296Z,24.95
2022-08-26T17:20:42.218Z,24.91
2022-08-26T17:25:42.144Z,24.88
2022-08-26T17:30:42.139Z,24.84
2022-08-26T17:35:42.020Z,24.80
2022-08-26T17:40:41.953Z,24.73
2022-08-26T17:45:41.897Z,24.65
2022-08-26T17:50:41.837Z,24.60
2022-08-26T17:55:41.754Z,24.57
2022-08-26T18:00:41.682Z,24.53
2022-08-26T18:05:41.608Z,24.48
2022-08-26T18:10:41.560Z,24.43
2022-08-26T18:15:41.573Z,24.33
2022-08-26T18:20:41.417Z,24.23
2022-08-26T18:25:41.344Z,24.14
2022-08-26T18:30:41.347Z,24.02
2022-08-26T18:35:41.205Z,23.86
2022-08-26T18:40:41.157Z,23.77
2022-08-26T18:45:41.265Z,23.68
2022-08-26T18:50:42.341Z,23.54
2022-08-26T18:55:40.951Z,23.47
2022-08-26T19:00:40.893Z,23.45
2022-08-26T19:05:40.834Z,23.46
2022-08-26T19:10:40.776Z,23.45
2022-08-26T19:15:40.700Z,23.43
2022-08-26T19:20:43.561Z,23.31
2022-08-26T19:25:40.582Z,23.25
2022-08-26T19:30:40.627Z,23.24
2022-08-26T19:35:40.448Z,23.27
2022-08-26T19:40:40.417Z,23.25
2022-08-26T19:45:40.347Z,23.18
2022-08-26T19:50:40.270Z,23.06
2022-08-26T19:55:40.197Z,23.05
2022-08-26T20:00:40.141Z,23.06
2022-08-26T20:05:40.083Z,23.05
2022-08-26T20:10:40.014Z,23.09
2022-08-26T20:15:39.945Z,23.10
2022-08-26T20:20:39.893Z,23.06
2022-08-26T20:25:39.826Z,23.00
2022-08-26T20:30:39.771Z,23.02
2022-08-26T20:35:39.693Z,23.03
2022-08-26T20:40:39.629Z,23.08
2022-08-26T20:45:39.642Z,23.08
2022-08-26T20:50:39.512Z,23.08
2022-08-26T20:55:39.500Z,23.08
2022-08-26T21:00:39.423Z,23.06
2022-08-26T21:05:39.307Z,23.00
2022-08-26T21:10:39.251Z,22.96
2022-08-26T21:15:39.183Z,22.91
2022-08-26T21:20:39.127Z,22.88
2022-08-26T21:25:39.044Z,22.88
2022-08-26T21:30:39.004Z,22.87
2022-08-26T21:35:38.918Z,22.87
2022-08-26T21:40:38.867Z,22.88
2022-08-26T21:45:38.827Z,22.87
2022-08-26T21:50:38.734Z,22.85
2022-08-26T21:55:38.664Z,22.78
2022-08-26T22:00:38.604Z,22.76
2022-08-26T22:05:38.519Z,22.73
2022-08-26T22:10:38.475Z,22.76
2022-08-26T22:15:38.389Z,22.76
2022-08-26T22:20:38.332Z,22.75
2022-08-26T22:25:38.261Z,22.75
2022-08-26T22:30:38.211Z,22.70
2022-08-26T22:35:38.139Z,22.68
2022-08-26T22:40:38.069Z,22.63
2022-08-26T22:45:38.032Z,22.59
2022-08-26T22:50:37.947Z,22.54
2022-08-26T22:55:37.874Z,22.49
2022-08-26T23:00:37.827Z,22.44
2022-08-26T23:05:37.737Z,22.40
2022-08-26T23:10:37.677Z,22.34
2022-08-26T23:15:37.794Z,22.29
2022-08-26T23:20:37.545Z,22.27
2022-08-26T23:25:37.473Z,22.22
2022-08-26T23:30:37.413Z,22.16
2022-08-26T23:35:37.341Z,22.10
2022-08-26T23:40:37.380Z,22.07
2022-08-26T23:45:37.288Z,22.01
2022-08-26T23:50:37.163Z,22.05
2022-08-26T23:55:37.091Z,22.06
